createdAt,value
2022-08-29T00:00:16.697Z,19.5
2022-08-29T00:15:04.683Z,19.5
2022-08-29T00:30:05.898Z,19.5
2022-08-29T00:45:04.164Z,19.4
2022-08-29T01:00:08.411Z,19.4
2022-08-29T01:15:06.649Z,19.4
2022-08-29T01:30:07.935Z,19.3
2022-08-29T01:45:04.118Z,19.3
2022-08-29T02:00:08.872Z,19.3
2022-08-29T02:15:04.128Z,19.2
2022-08-29T02:30:09.502Z,19.2
2022-08-29T02:45:03.900Z,19.2
2022-08-29T03:00:08.351Z,19.1
2022-08-29T03:15:03.276Z,19.1
2022-08-29T03:30:08.479Z,19.1
2022-08-29T03:45:02.374Z,19.1
2022-08-29T04:00:05.544Z,19.0
2022-08-29T04:15:04.059Z,19
2022-08-29T04:30:07.878Z,19
2022-08-29T04:45:06.788Z,19
2022-08-29T05:00:12.532Z,18.9
2022-08-29T05:15:03.923Z,18.9
2022-08-29T05:30:07.451Z,18.9
2022-08-29T05:45:03.814Z,18.9
2022-08-29T06:00:07.016Z,19.0
2022-08-29T06:15:04.153Z,19
2022-08-29T06:30:10.044Z,19
2022-08-29T06:45:04.032Z,19.1
2022-08-29T07:00:21.908Z,19.2
2022-08-29T07:15:04.999Z,19.4
2022-08-29T07:30:13.737Z,19.5
2022-08-29T07:45:04.860Z,19.7
2022-08-29T08:00:14.402Z,19.8
2022-08-29T08:15:02.786Z,20.0
2022-08-29T08:30:08.245Z,20
2022-08-29T08:45:04.822Z,20.1
2022-08-29T09:00:07.123Z,20.2
2022-08-29T09:15:07.440Z,20.3
2022-08-29T09:30:06.122Z,20.3
2022-08-29T09:45:05.296Z,20.4
2022-08-29T10:00:07.705Z,20.5
2022-08-29T10:15:03.534Z,20.6
2022-08-29T10:30:10.415Z,20.6
2022-08-29T10:45:05.466Z,20.7
2022-08-29T11:00:09.639Z,20.8
2022-08-29T11:15:06.299Z,20.9
2022-08-29T11:30:11.806Z,20.9
2022-08-29T11:45:07.961Z,21
2022-08-29T12:00:14.290Z,21.1
2022-08-29T12:15:05.290Z,21.1
2022-08-29T12:30:09.688Z,21.2
2022-08-29T12:45:05.512Z,21.3
2022-08-29T13:00:14.610Z,21.4
2022-08-29T13:15:05.218Z,21.4
2022-08-29T13:30:13.639Z,21.5
2022-08-29T13:45:03.988Z,21.5
2022-08-29T14:00:11.682Z,21.7
2022-08-29T14:15:08.273Z,21.8
2022-08-29T14:30:09.770Z,21.9
2022-08-29T14:45:07.513Z,21.9
2022-08-29T15:00:09.911Z,22.0
2022-08-29T15:15:06.303Z,22
2022-08-29T15:30:10.527Z,21.9
2022-08-29T15:45:07.620Z,21.8
2022-08-29T16:00:15.346Z,21.7
2022-08-29T16:15:09.079Z,21.6
2022-08-29T16:30:11.956Z,21.5
2022-08-29T16:45:08.364Z,21.5
2022-08-29T17:00:11.508Z,21.5
2022-08-29T17:15:06.941Z,21.4
2022-08-29T17:30:09.346Z,21.4
2022-08-29T17:45:03.066Z,21.4
2022-08-29T18:00:11.857Z,21.3
2022-08-29T18:15:07.878Z,21.3
2022-08-29T18:30:10.731Z,21.2
2022-08-29T18:45:05.677Z,21.2
2022-08-29T19:00:10.181Z,21.1
2022-08-29T19:15:12.664Z,21.0
2022-08-29T19:30:09.729Z,20.9
2022-08-29T19:45:04.178Z,20.9
2022-08-29T20:00:13.864Z,20.8
2022-08-29T20:15:05.511Z,20.7
2022-08-29T20:30:10.511Z,20.6
2022-08-29T20:45:03.805Z,20.6
2022-08-29T21:00:07.798Z,20.5
2022-08-29T21:15:05.030Z,20.5
2022-08-29T21:30:10.633Z,20.4
2022-08-29T21:45:03.660Z,20.3
2022-08-29T22:00:07.003Z,20.3
2022-08-29T22:15:05.147Z,20.2
2022-08-29T22:30:10.253Z,20.1
2022-08-29T22:45:08.816Z,20.1
2022-08-29T23:00:12.575Z,20.0
2022-08-29T23:15:05.443Z,20
2022-08-29T23:30:08.699Z,19.9
2022-08-29T23:45:04.660Z,19.9
